LFKJ 181700Z AUTO 30008KT CAVOK 28/18 Q1009 BECMG 23012KT

ElémentsDécodage
LFKJ Station météo située sur l'aérodrome de AJACCIO Campo dell'Oro
181700Z émis le 18 du mois à 17h00 UTC
AUTO Bulletin édité par un automate
30008KT vent du 300°, 08 noeuds
CAVOK Ceiling And Visibility OK
- Visibilité de 10 Km ou plus
- Pas de nuage au-dessous de 1500m ou au-dessous de l'altitude minimale du secteur la plus élevée (si>1500m) et absence de CB
- pas de temps présent significatif
28/18 température 28°C, point de rosée 18°C
 soit une humidité relative de 55%
Q1009 la pression au niveau de la mer (QNH) est de 1009 hPa
BECMG fluctuation du temps prévue
23012KT vent du 230°, 12 noeuds